Language selection

Weather shortcuts

Lake Winnipegosis: Past 24 Hour Conditions

 

Carberry

10:00 AM CDT 30 May 2024
Disclaimer

This table is a summary of hourly weather conditions for the past 24 hours.
Please note that these observations might not always be representative of weather conditions over their associated marine area.

Date / Time
(CDT)
Wind(knots) Conditions Visibility(km) Pressure(kPa) Air tempC) Relative humidity(%) Dew pointC)
30 May 2024
10:00 S 15 gusts 22 N/A N/A 100.5 19 61 11
9:00 SSE 16 gusts 22 N/A N/A 100.6 17 61 10
8:00 SSE 13 gusts 18 N/A N/A 100.6 16 62 9
7:00 SE 13 N/A N/A 100.6 16 62 8
6:00 SSE 12 N/A N/A 100.7 15 63 8
5:00 SSE 10 N/A N/A 100.8 15 62 8
4:00 SSE 11 gusts 16 N/A N/A 100.9 16 57 8
3:00 SSE 15 N/A N/A 100.9 17 55 8
2:00 SSE 11 gusts 17 N/A N/A 101.0 17 55 8
1:00 SSE 15 N/A N/A 101.1 18 53 8
0:00 SSE 16 gusts 21 N/A N/A 101.1 18 54 8
29 May 2024
23:00 SSE 11 N/A N/A 101.2 18 55 9
22:00 SE 9 N/A N/A 101.3 19 50 8
21:00 SSE 10 N/A N/A 101.3 21 43 8
20:00 SSE 12 gusts 23 N/A N/A 101.3 21 39 7
19:00 S 17 gusts 23 N/A N/A 101.3 22 37 7
18:00 SSE 21 N/A N/A 101.4 23 35 6
17:00 SSE 19 gusts 25 N/A N/A 101.5 23 35 7
16:00 SSE 18 gusts 24 N/A N/A 101.5 22 37 7
15:00 S 17 gusts 22 N/A N/A 101.6 22 40 8
14:00 S 13 gusts 22 N/A N/A 101.7 21 47 9
13:00 SE 17 N/A N/A 101.8 20 49 9
12:00 SSE 13 gusts 18 N/A N/A 101.9 17 54 8
11:00 SSE 11 gusts 16 N/A N/A 102.0 15 59 7
10:00 S 13 N/A N/A 102.1 14 68 8

Zoom-in to make a selection

Map of Prairies - Manitoba Lakes marine weather areas Lake Winnipeg South Basin - 45140 Lake Winnipeg North - 45144 Lake Winnipeg Narrows - 45145 Lake Of the Woods - 45148 Carberry Portage Southport Airport Wasagaming Sprague Winnipeg Richardson Int'l Airport Berens River Airport George Island Fisher Branch Gimli Harbour Gimli Grand Rapids Victoria Beach Dauphin Airport McCreary Oak Point Marine Swan River Norway House Airport Kenora Airport Royal Island
Legend:
buoy Buoy
land station Land Station

Prairies - Manitoba Lakes Area

Another Region

Features

New Predicting and Alerting Coastal Flooding Program

Find out about coastal flooding coverage, forecasts and warnings in your region

Date modified: